LHX2H EGLL-EDDF
Flight info
| Callsign | LHX2H |
|---|---|
| Flight time | 1h 0m |
| Altitude | 39000 |
| Route | DET L6 DVR UL9 KONAN UL607 SPI T180 NIVNU T847 IMCOM IMCOM1A |
| Aircraft | A20N/M-SDE2E3FGHIRWXY/LB1 |
Departure
| Time | 2026-05-07 13:41 |
|---|---|
| Airport | London Heathrow Airport (EGLL) |
Arrival
| Time | 2026-05-07 14:42 |
|---|---|
| Airport | Frankfurt Main Airport (EDDF) |
| Time | Latitude | Longitude | Altitude | Speed | Heading |
|---|---|---|---|---|---|
| 2026-05-07 13:23 | 51.46999 | -0.44678 | 84 ft | 0 kts | 269° |
| 2026-05-07 13:28 | 51.46999 | -0.44656 | 87 ft | 4 kts | 266° |
| 2026-05-07 13:28 | 51.47002 | -0.44613 | 84 ft | 4 kts | 257° |
| 2026-05-07 13:28 | 51.47010 | -0.44573 | 89 ft | 4 kts | 231° |
| 2026-05-07 13:28 | 51.47026 | -0.44555 | 89 ft | 1 kts | 181° |
| 2026-05-07 13:29 | 51.47030 | -0.44555 | 89 ft | 0 kts | 181° |
| 2026-05-07 13:35 | 51.46985 | -0.44557 | 101 ft | 15 kts | 181° |
| 2026-05-07 13:35 | 51.46858 | -0.44558 | 87 ft | 21 kts | 179° |
| 2026-05-07 13:36 | 51.46773 | -0.44555 | 87 ft | 0 kts | 179° |
| 2026-05-07 13:36 | 51.46756 | -0.44578 | 87 ft | 5 kts | 239° |
| 2026-05-07 13:36 | 51.46753 | -0.44659 | 87 ft | 11 kts | 268° |
| 2026-05-07 13:36 | 51.46753 | -0.44810 | 89 ft | 16 kts | 274° |
| 2026-05-07 13:37 | 51.46753 | -0.45024 | 87 ft | 23 kts | 268° |
| 2026-05-07 13:37 | 51.46754 | -0.45304 | 86 ft | 27 kts | 270° |
| 2026-05-07 13:37 | 51.46750 | -0.45642 | 82 ft | 32 kts | 269° |
| 2026-05-07 13:37 | 51.46747 | -0.46008 | 86 ft | 35 kts | 270° |
| 2026-05-07 13:38 | 51.46750 | -0.46397 | 87 ft | 36 kts | 270° |
| 2026-05-07 13:38 | 51.46747 | -0.46805 | 90 ft | 37 kts | 270° |
| 2026-05-07 13:38 | 51.46747 | -0.47230 | 85 ft | 40 kts | 268° |
| 2026-05-07 13:38 | 51.46748 | -0.47690 | 84 ft | 42 kts | 270° |
| 2026-05-07 13:39 | 51.46745 | -0.48132 | 85 ft | 33 kts | 269° |
| 2026-05-07 13:39 | 51.46734 | -0.48435 | 88 ft | 23 kts | 245° |
| 2026-05-07 13:39 | 51.46707 | -0.48467 | 87 ft | 8 kts | 199° |
| 2026-05-07 13:39 | 51.46621 | -0.48475 | 89 ft | 16 kts | 175° |
| 2026-05-07 13:40 | 51.46501 | -0.48463 | 87 ft | 17 kts | 175° |
| 2026-05-07 13:40 | 51.46469 | -0.48371 | 88 ft | 9 kts | 69° |
| 2026-05-07 13:40 | 51.46478 | -0.48302 | 88 ft | 0 kts | 88° |
| 2026-05-07 13:41 | 51.46479 | -0.48102 | 84 ft | 54 kts | 90° |
| 2026-05-07 13:41 | 51.46481 | -0.47029 | 85 ft | 133 kts | 89° |
| 2026-05-07 13:41 | 51.46484 | -0.45377 | 631 ft | 147 kts | 90° |
| 2026-05-07 13:41 | 51.46481 | -0.43663 | 1344 ft | 162 kts | 90° |
| 2026-05-07 13:42 | 51.46475 | -0.41753 | 1981 ft | 185 kts | 92° |
| 2026-05-07 13:42 | 51.46125 | -0.39600 | 2557 ft | 212 kts | 118° |
| 2026-05-07 13:42 | 51.45178 | -0.37596 | 3302 ft | 238 kts | 132° |
| 2026-05-07 13:42 | 51.44161 | -0.35336 | 4344 ft | 261 kts | 119° |
| 2026-05-07 13:43 | 51.43424 | -0.32599 | 5221 ft | 274 kts | 110° |
| 2026-05-07 13:43 | 51.42895 | -0.29700 | 5360 ft | 271 kts | 104° |
| 2026-05-07 13:43 | 51.42482 | -0.26749 | 5469 ft | 271 kts | 102° |
| 2026-05-07 13:43 | 51.42108 | -0.23791 | 5593 ft | 271 kts | 102° |
| 2026-05-07 13:44 | 51.41738 | -0.20866 | 5723 ft | 272 kts | 102° |
| 2026-05-07 13:44 | 51.41351 | -0.17909 | 5858 ft | 271 kts | 103° |
| 2026-05-07 13:44 | 51.40951 | -0.14945 | 5982 ft | 271 kts | 103° |
| 2026-05-07 13:44 | 51.40546 | -0.11993 | 5991 ft | 271 kts | 103° |
| 2026-05-07 13:45 | 51.40135 | -0.09043 | 6004 ft | 271 kts | 103° |
| 2026-05-07 13:45 | 51.39726 | -0.06099 | 5995 ft | 271 kts | 103° |
| 2026-05-07 13:45 | 51.39320 | -0.03154 | 5992 ft | 271 kts | 103° |
| 2026-05-07 13:45 | 51.38912 | -0.00216 | 6002 ft | 271 kts | 103° |
| 2026-05-07 13:46 | 51.38502 | 0.02730 | 6009 ft | 271 kts | 103° |
| 2026-05-07 13:46 | 51.38090 | 0.05667 | 6007 ft | 271 kts | 103° |
| 2026-05-07 13:46 | 51.37686 | 0.08553 | 6001 ft | 271 kts | 103° |
| 2026-05-07 13:46 | 51.37272 | 0.11501 | 6002 ft | 270 kts | 103° |
| 2026-05-07 13:47 | 51.36859 | 0.14439 | 5996 ft | 271 kts | 103° |
| 2026-05-07 13:47 | 51.36443 | 0.17399 | 6088 ft | 274 kts | 104° |
| 2026-05-07 13:47 | 51.36023 | 0.20388 | 6735 ft | 276 kts | 103° |
| 2026-05-07 13:47 | 51.35601 | 0.23382 | 8143 ft | 275 kts | 104° |
| 2026-05-07 13:48 | 51.35177 | 0.26387 | 9572 ft | 281 kts | 104° |
| 2026-05-07 13:48 | 51.34735 | 0.29498 | 10638 ft | 294 kts | 104° |
| 2026-05-07 13:48 | 51.34263 | 0.32803 | 11352 ft | 315 kts | 104° |
| 2026-05-07 13:48 | 51.33761 | 0.36316 | 12203 ft | 333 kts | 104° |
| 2026-05-07 13:49 | 51.33236 | 0.39998 | 13077 ft | 345 kts | 104° |
| 2026-05-07 13:49 | 51.32697 | 0.43771 | 13939 ft | 350 kts | 104° |
| 2026-05-07 13:49 | 51.32148 | 0.47600 | 14738 ft | 357 kts | 104° |
| 2026-05-07 13:49 | 51.31589 | 0.51498 | 15572 ft | 363 kts | 104° |
| 2026-05-07 13:50 | 51.31018 | 0.55457 | 16425 ft | 368 kts | 104° |
| 2026-05-07 13:50 | 51.30437 | 0.59471 | 17308 ft | 374 kts | 105° |
| 2026-05-07 13:50 | 51.29719 | 0.63494 | 18255 ft | 380 kts | 107° |
| 2026-05-07 13:50 | 51.28971 | 0.67575 | 19141 ft | 385 kts | 107° |
| 2026-05-07 13:51 | 51.28212 | 0.71716 | 19953 ft | 394 kts | 107° |
| 2026-05-07 13:51 | 51.27422 | 0.76020 | 20268 ft | 415 kts | 107° |
| 2026-05-07 13:51 | 51.26587 | 0.80565 | 20509 ft | 436 kts | 107° |
| 2026-05-07 13:51 | 51.25714 | 0.85303 | 20743 ft | 454 kts | 107° |
| 2026-05-07 13:52 | 51.24805 | 0.90230 | 21067 ft | 468 kts | 107° |
| 2026-05-07 13:52 | 51.23884 | 0.95214 | 21923 ft | 467 kts | 107° |
| 2026-05-07 13:52 | 51.22979 | 1.00099 | 22896 ft | 464 kts | 108° |
| 2026-05-07 13:52 | 51.22063 | 1.05031 | 23805 ft | 463 kts | 108° |
| 2026-05-07 13:53 | 51.21145 | 1.09953 | 24494 ft | 466 kts | 108° |
| 2026-05-07 13:53 | 51.20205 | 1.14973 | 24700 ft | 479 kts | 108° |
| 2026-05-07 13:53 | 51.19240 | 1.20116 | 24947 ft | 488 kts | 108° |
| 2026-05-07 13:53 | 51.18263 | 1.25306 | 25431 ft | 490 kts | 108° |
| 2026-05-07 13:54 | 51.17280 | 1.30524 | 25810 ft | 493 kts | 108° |
| 2026-05-07 13:54 | 51.16428 | 1.35806 | 26272 ft | 493 kts | 103° |
| 2026-05-07 13:54 | 51.15717 | 1.41146 | 26762 ft | 492 kts | 103° |
| 2026-05-07 13:54 | 51.15011 | 1.46382 | 27264 ft | 491 kts | 103° |
| 2026-05-07 13:55 | 51.14284 | 1.51787 | 27800 ft | 490 kts | 103° |
| 2026-05-07 13:55 | 51.13588 | 1.56981 | 28310 ft | 489 kts | 103° |
| 2026-05-07 13:55 | 51.12879 | 1.62270 | 28810 ft | 488 kts | 103° |
| 2026-05-07 13:55 | 51.12171 | 1.67540 | 29326 ft | 487 kts | 103° |
| 2026-05-07 13:56 | 51.11459 | 1.72807 | 29832 ft | 486 kts | 103° |
| 2026-05-07 13:56 | 51.10747 | 1.78056 | 30320 ft | 485 kts | 103° |
| 2026-05-07 13:56 | 51.10031 | 1.83301 | 30801 ft | 484 kts | 103° |
| 2026-05-07 13:56 | 51.09315 | 1.88532 | 31310 ft | 483 kts | 103° |
| 2026-05-07 13:57 | 51.08597 | 1.93750 | 31815 ft | 482 kts | 103° |
| 2026-05-07 13:57 | 51.07879 | 1.98954 | 32315 ft | 481 kts | 103° |
| 2026-05-07 13:57 | 51.07160 | 2.04147 | 32815 ft | 481 kts | 103° |
| 2026-05-07 13:57 | 51.06440 | 2.09329 | 33293 ft | 480 kts | 103° |
| 2026-05-07 13:58 | 51.05718 | 2.14506 | 33785 ft | 479 kts | 103° |
| 2026-05-07 13:58 | 51.05240 | 2.17920 | 34093 ft | 478 kts | 103° |
| 2026-05-07 13:58 | 51.04520 | 2.23060 | 34489 ft | 477 kts | 103° |
| 2026-05-07 13:58 | 51.03792 | 2.28227 | 34872 ft | 477 kts | 104° |
| 2026-05-07 13:59 | 51.03066 | 2.33370 | 35244 ft | 477 kts | 104° |
| 2026-05-07 13:59 | 51.02338 | 2.38505 | 35607 ft | 477 kts | 104° |
| 2026-05-07 13:59 | 51.01607 | 2.43646 | 35971 ft | 477 kts | 104° |
| 2026-05-07 13:59 | 51.00874 | 2.48784 | 36335 ft | 477 kts | 104° |
| 2026-05-07 14:00 | 51.00139 | 2.53922 | 36692 ft | 477 kts | 104° |
| 2026-05-07 14:00 | 50.99402 | 2.59056 | 37015 ft | 477 kts | 104° |
| 2026-05-07 14:00 | 50.98663 | 2.64177 | 37354 ft | 477 kts | 104° |
| 2026-05-07 14:00 | 50.97921 | 2.69310 | 37696 ft | 477 kts | 104° |
| 2026-05-07 14:01 | 50.97178 | 2.74435 | 38029 ft | 477 kts | 104° |
| 2026-05-07 14:01 | 50.96432 | 2.79558 | 38372 ft | 476 kts | 104° |
| 2026-05-07 14:01 | 50.95684 | 2.84677 | 38696 ft | 476 kts | 104° |
| 2026-05-07 14:01 | 50.94934 | 2.89792 | 38942 ft | 477 kts | 104° |
| 2026-05-07 14:02 | 50.94183 | 2.94902 | 39017 ft | 476 kts | 104° |
| 2026-05-07 14:02 | 50.92689 | 3.05017 | 39065 ft | 475 kts | 104° |
| 2026-05-07 14:03 | 50.91164 | 3.15269 | 39066 ft | 480 kts | 104° |
| 2026-05-07 14:03 | 50.89626 | 3.25541 | 39068 ft | 479 kts | 104° |
| 2026-05-07 14:04 | 50.88077 | 3.35822 | 39069 ft | 479 kts | 105° |
| 2026-05-07 14:04 | 50.86522 | 3.46083 | 39070 ft | 479 kts | 105° |
| 2026-05-07 14:05 | 50.84956 | 3.56344 | 39067 ft | 480 kts | 105° |
| 2026-05-07 14:05 | 50.83381 | 3.66594 | 39069 ft | 480 kts | 105° |
| 2026-05-07 14:06 | 50.81797 | 3.76841 | 39069 ft | 480 kts | 105° |
| 2026-05-07 14:06 | 50.80203 | 3.87088 | 39070 ft | 480 kts | 105° |
| 2026-05-07 14:07 | 50.78602 | 3.97315 | 39073 ft | 480 kts | 105° |
| 2026-05-07 14:07 | 50.76991 | 4.07546 | 39071 ft | 480 kts | 105° |
| 2026-05-07 14:08 | 50.75369 | 4.17776 | 39071 ft | 480 kts | 105° |
| 2026-05-07 14:08 | 50.73737 | 4.28006 | 39071 ft | 480 kts | 105° |
| 2026-05-07 14:09 | 50.72098 | 4.38220 | 39073 ft | 480 kts | 105° |
| 2026-05-07 14:09 | 50.70461 | 4.48360 | 39075 ft | 480 kts | 105° |
| 2026-05-07 14:10 | 50.68805 | 4.58552 | 39072 ft | 480 kts | 105° |
| 2026-05-07 14:10 | 50.67138 | 4.68752 | 39070 ft | 480 kts | 106° |
| 2026-05-07 14:11 | 50.65466 | 4.78924 | 39070 ft | 480 kts | 106° |
| 2026-05-07 14:11 | 50.63778 | 4.89124 | 39068 ft | 480 kts | 106° |
| 2026-05-07 14:12 | 50.62085 | 4.99302 | 39070 ft | 480 kts | 106° |
| 2026-05-07 14:12 | 50.60382 | 5.09472 | 39070 ft | 481 kts | 106° |
| 2026-05-07 14:13 | 50.58670 | 5.19642 | 39072 ft | 481 kts | 106° |
| 2026-05-07 14:13 | 50.56951 | 5.29789 | 39038 ft | 478 kts | 106° |
| 2026-05-07 14:13 | 50.56096 | 5.34819 | 38717 ft | 475 kts | 106° |
| 2026-05-07 14:14 | 50.55244 | 5.39812 | 38103 ft | 470 kts | 106° |
| 2026-05-07 14:14 | 50.54398 | 5.44754 | 37403 ft | 467 kts | 106° |
| 2026-05-07 14:14 | 50.53550 | 5.49692 | 36576 ft | 467 kts | 106° |
| 2026-05-07 14:14 | 50.52708 | 5.54586 | 35771 ft | 460 kts | 106° |
| 2026-05-07 14:15 | 50.51874 | 5.59417 | 34810 ft | 456 kts | 106° |
| 2026-05-07 14:15 | 50.51034 | 5.64270 | 33828 ft | 469 kts | 106° |
| 2026-05-07 14:15 | 50.50171 | 5.69243 | 32722 ft | 470 kts | 106° |
| 2026-05-07 14:15 | 50.49317 | 5.74148 | 31664 ft | 461 kts | 105° |
| 2026-05-07 14:16 | 50.48489 | 5.78900 | 30661 ft | 453 kts | 105° |
| 2026-05-07 14:16 | 50.47662 | 5.83627 | 29592 ft | 445 kts | 105° |
| 2026-05-07 14:16 | 50.46849 | 5.88260 | 28468 ft | 437 kts | 106° |
| 2026-05-07 14:16 | 50.46048 | 5.92821 | 27385 ft | 430 kts | 106° |
| 2026-05-07 14:17 | 50.45261 | 5.97289 | 26473 ft | 420 kts | 106° |
| 2026-05-07 14:17 | 50.44490 | 6.01654 | 26033 ft | 416 kts | 106° |
| 2026-05-07 14:17 | 50.43696 | 6.06128 | 25786 ft | 435 kts | 106° |
| 2026-05-07 14:17 | 50.42867 | 6.10781 | 25578 ft | 451 kts | 106° |
| 2026-05-07 14:18 | 50.42005 | 6.15616 | 25416 ft | 470 kts | 106° |
| 2026-05-07 14:18 | 50.41106 | 6.20651 | 25262 ft | 490 kts | 107° |
| 2026-05-07 14:18 | 50.40178 | 6.25833 | 25131 ft | 494 kts | 107° |
| 2026-05-07 14:18 | 50.39252 | 6.30996 | 25036 ft | 493 kts | 107° |
| 2026-05-07 14:19 | 50.38321 | 6.36181 | 25016 ft | 493 kts | 107° |
| 2026-05-07 14:19 | 50.37391 | 6.41345 | 25022 ft | 493 kts | 107° |
| 2026-05-07 14:19 | 50.36396 | 6.46480 | 24855 ft | 492 kts | 108° |
| 2026-05-07 14:19 | 50.35359 | 6.51576 | 24611 ft | 491 kts | 109° |
| 2026-05-07 14:20 | 50.34311 | 6.56674 | 24366 ft | 492 kts | 108° |
| 2026-05-07 14:20 | 50.33268 | 6.61771 | 24130 ft | 491 kts | 108° |
| 2026-05-07 14:20 | 50.32234 | 6.66847 | 23902 ft | 489 kts | 108° |
| 2026-05-07 14:20 | 50.31205 | 6.71906 | 23669 ft | 487 kts | 108° |
| 2026-05-07 14:21 | 50.30177 | 6.76959 | 23400 ft | 486 kts | 108° |
| 2026-05-07 14:21 | 50.29154 | 6.81981 | 23126 ft | 484 kts | 108° |
| 2026-05-07 14:21 | 50.28133 | 6.86974 | 22842 ft | 481 kts | 108° |
| 2026-05-07 14:21 | 50.27124 | 6.91904 | 22339 ft | 468 kts | 108° |
| 2026-05-07 14:22 | 50.26146 | 6.96673 | 21581 ft | 454 kts | 108° |
| 2026-05-07 14:22 | 50.25191 | 7.01317 | 20734 ft | 444 kts | 108° |
| 2026-05-07 14:22 | 50.24255 | 7.05851 | 19916 ft | 435 kts | 108° |
| 2026-05-07 14:22 | 50.23334 | 7.10307 | 19099 ft | 427 kts | 108° |
| 2026-05-07 14:23 | 50.22487 | 7.14695 | 18311 ft | 419 kts | 102° |
| 2026-05-07 14:23 | 50.22236 | 7.19174 | 17689 ft | 407 kts | 89° |
| 2026-05-07 14:23 | 50.22260 | 7.23473 | 17438 ft | 387 kts | 90° |
| 2026-05-07 14:23 | 50.22268 | 7.27608 | 16915 ft | 376 kts | 90° |
| 2026-05-07 14:24 | 50.22272 | 7.31679 | 16197 ft | 373 kts | 90° |
| 2026-05-07 14:24 | 50.22277 | 7.35654 | 15521 ft | 370 kts | 90° |
| 2026-05-07 14:24 | 50.22282 | 7.39652 | 14867 ft | 366 kts | 90° |
| 2026-05-07 14:24 | 50.22286 | 7.43615 | 14197 ft | 364 kts | 90° |
| 2026-05-07 14:25 | 50.22290 | 7.47543 | 13522 ft | 361 kts | 90° |
| 2026-05-07 14:25 | 50.22293 | 7.51437 | 12855 ft | 357 kts | 90° |
| 2026-05-07 14:25 | 50.22294 | 7.55298 | 12200 ft | 353 kts | 90° |
| 2026-05-07 14:25 | 50.22294 | 7.59108 | 11558 ft | 350 kts | 90° |
| 2026-05-07 14:26 | 50.22293 | 7.62813 | 11376 ft | 338 kts | 89° |
| 2026-05-07 14:26 | 50.22291 | 7.66557 | 11253 ft | 351 kts | 89° |
| 2026-05-07 14:26 | 50.22288 | 7.70376 | 11145 ft | 350 kts | 90° |
| 2026-05-07 14:26 | 50.22284 | 7.74157 | 11051 ft | 347 kts | 89° |
| 2026-05-07 14:27 | 50.22281 | 7.77956 | 11043 ft | 363 kts | 90° |
| 2026-05-07 14:27 | 50.22274 | 7.82054 | 11038 ft | 384 kts | 90° |
| 2026-05-07 14:27 | 50.22263 | 7.86206 | 11045 ft | 380 kts | 90° |
| 2026-05-07 14:27 | 50.22250 | 7.90350 | 11045 ft | 383 kts | 90° |
| 2026-05-07 14:28 | 50.22237 | 7.94501 | 11044 ft | 382 kts | 90° |
| 2026-05-07 14:28 | 50.22223 | 7.98647 | 11042 ft | 383 kts | 90° |
| 2026-05-07 14:28 | 50.22207 | 8.02834 | 11041 ft | 392 kts | 90° |
| 2026-05-07 14:28 | 50.22190 | 8.07151 | 11045 ft | 404 kts | 90° |
| 2026-05-07 14:29 | 50.22171 | 8.11540 | 11043 ft | 404 kts | 90° |
| 2026-05-07 14:29 | 50.22150 | 8.15931 | 11049 ft | 405 kts | 90° |
| 2026-05-07 14:29 | 50.22127 | 8.20229 | 11045 ft | 404 kts | 90° |
| 2026-05-07 14:29 | 50.22103 | 8.24606 | 11049 ft | 404 kts | 90° |
| 2026-05-07 14:30 | 50.22077 | 8.28983 | 10933 ft | 401 kts | 90° |
| 2026-05-07 14:30 | 50.22049 | 8.33304 | 10378 ft | 397 kts | 90° |
| 2026-05-07 14:30 | 50.22021 | 8.37607 | 9554 ft | 392 kts | 90° |
| 2026-05-07 14:30 | 50.21991 | 8.41816 | 8661 ft | 385 kts | 90° |
| 2026-05-07 14:31 | 50.21960 | 8.45945 | 7932 ft | 374 kts | 90° |
| 2026-05-07 14:31 | 50.21930 | 8.49910 | 7622 ft | 356 kts | 90° |
| 2026-05-07 14:31 | 50.21899 | 8.53717 | 7395 ft | 356 kts | 90° |
| 2026-05-07 14:31 | 50.21867 | 8.57619 | 7226 ft | 358 kts | 90° |
| 2026-05-07 14:32 | 50.21832 | 8.61497 | 7100 ft | 357 kts | 90° |
| 2026-05-07 14:32 | 50.21798 | 8.65380 | 7048 ft | 358 kts | 90° |
| 2026-05-07 14:32 | 50.21764 | 8.69250 | 6875 ft | 355 kts | 90° |
| 2026-05-07 14:32 | 50.21725 | 8.73077 | 6319 ft | 351 kts | 90° |
| 2026-05-07 14:33 | 50.21685 | 8.76881 | 5539 ft | 348 kts | 90° |
| 2026-05-07 14:33 | 50.21644 | 8.80640 | 4733 ft | 344 kts | 90° |
| 2026-05-07 14:33 | 50.21604 | 8.84333 | 4281 ft | 338 kts | 89° |
| 2026-05-07 14:33 | 50.21826 | 8.88014 | 4082 ft | 340 kts | 77° |
| 2026-05-07 14:34 | 50.22491 | 8.91525 | 4006 ft | 337 kts | 68° |
| 2026-05-07 14:34 | 50.23297 | 8.94937 | 3997 ft | 338 kts | 71° |
| 2026-05-07 14:34 | 50.23603 | 8.98605 | 3999 ft | 335 kts | 92° |
| 2026-05-07 14:34 | 50.23040 | 9.01948 | 3996 ft | 313 kts | 116° |
| 2026-05-07 14:35 | 50.21753 | 9.04487 | 3997 ft | 290 kts | 141° |
| 2026-05-07 14:35 | 50.20045 | 9.05806 | 3995 ft | 269 kts | 168° |
| 2026-05-07 14:35 | 50.18263 | 9.05752 | 3996 ft | 249 kts | 198° |
| 2026-05-07 14:35 | 50.16838 | 9.04463 | 4002 ft | 231 kts | 223° |
| 2026-05-07 14:36 | 50.15628 | 9.02793 | 3996 ft | 235 kts | 224° |
| 2026-05-07 14:36 | 50.14486 | 9.01011 | 3997 ft | 231 kts | 234° |
| 2026-05-07 14:36 | 50.13656 | 8.98884 | 3998 ft | 230 kts | 246° |
| 2026-05-07 14:36 | 50.13034 | 8.96601 | 4000 ft | 229 kts | 251° |
| 2026-05-07 14:37 | 50.12483 | 8.94276 | 3998 ft | 228 kts | 252° |
| 2026-05-07 14:37 | 50.11380 | 8.89634 | 3996 ft | 228 kts | 251° |
| 2026-05-07 14:37 | 50.10830 | 8.87321 | 4001 ft | 229 kts | 251° |
| 2026-05-07 14:38 | 50.10277 | 8.84995 | 3951 ft | 228 kts | 251° |
| 2026-05-07 14:38 | 50.09735 | 8.82716 | 3686 ft | 222 kts | 251° |
| 2026-05-07 14:38 | 50.09210 | 8.80509 | 3389 ft | 219 kts | 251° |
| 2026-05-07 14:38 | 50.08685 | 8.78302 | 3089 ft | 216 kts | 251° |
| 2026-05-07 14:39 | 50.08167 | 8.76127 | 2790 ft | 209 kts | 251° |
| 2026-05-07 14:39 | 50.07683 | 8.74099 | 2532 ft | 187 kts | 252° |
| 2026-05-07 14:39 | 50.07260 | 8.72320 | 2293 ft | 174 kts | 252° |
| 2026-05-07 14:39 | 50.06939 | 8.70477 | 2205 ft | 179 kts | 263° |
| 2026-05-07 14:40 | 50.06770 | 8.68697 | 1960 ft | 157 kts | 263° |
| 2026-05-07 14:40 | 50.06544 | 8.67042 | 1644 ft | 152 kts | 257° |
| 2026-05-07 14:40 | 50.06184 | 8.65575 | 1339 ft | 141 kts | 247° |
| 2026-05-07 14:40 | 50.05814 | 8.64165 | 1200 ft | 138 kts | 253° |
| 2026-05-07 14:41 | 50.05497 | 8.62761 | 999 ft | 136 kts | 250° |
| 2026-05-07 14:41 | 50.05153 | 8.61421 | 735 ft | 127 kts | 251° |
| 2026-05-07 14:41 | 50.04873 | 8.60187 | 587 ft | 118 kts | 251° |
| 2026-05-07 14:41 | 50.04586 | 8.59003 | 452 ft | 119 kts | 251° |
| 2026-05-07 14:42 | 50.04302 | 8.57810 | 365 ft | 109 kts | 250° |
| 2026-05-07 14:42 | 50.04132 | 8.57092 | 365 ft | 42 kts | 250° |
| 2026-05-07 14:42 | 50.04063 | 8.56806 | 362 ft | 37 kts | 249° |
| 2026-05-07 14:42 | 50.04150 | 8.56757 | 360 ft | 13 kts | 31° |
| 2026-05-07 14:43 | 50.04171 | 8.56771 | 359 ft | 0 kts | 22° |
| 2026-05-07 14:43 | 50.04181 | 8.56776 | 361 ft | 0 kts | 14° |
| 2026-05-07 14:43 | 50.04186 | 8.56778 | 360 ft | 5 kts | 15° |
| 2026-05-07 14:43 | 50.04226 | 8.56795 | 363 ft | 1 kts | 15° |
| 2026-05-07 14:44 | 50.04269 | 8.56873 | 359 ft | 18 kts | 70° |
| 2026-05-07 14:44 | 50.04331 | 8.57127 | 364 ft | 31 kts | 69° |
| 2026-05-07 14:44 | 50.04408 | 8.57453 | 361 ft | 25 kts | 67° |
| 2026-05-07 14:44 | 50.04472 | 8.57729 | 369 ft | 30 kts | 71° |
| 2026-05-07 14:45 | 50.04524 | 8.57957 | 365 ft | 16 kts | 72° |
| 2026-05-07 14:45 | 50.04566 | 8.58113 | 365 ft | 7 kts | 69° |
| 2026-05-07 14:45 | 50.04589 | 8.58207 | 368 ft | 1 kts | 69° |
| 2026-05-07 14:45 | 50.04599 | 8.58250 | 368 ft | 24 kts | 70° |
| 2026-05-07 14:46 | 50.04679 | 8.58597 | 369 ft | 39 kts | 70° |
| 2026-05-07 14:46 | 50.04751 | 8.58876 | 369 ft | 16 kts | 69° |
| 2026-05-07 14:46 | 50.04764 | 8.58917 | 372 ft | 4 kts | 53° |
| 2026-05-07 14:46 | 50.04806 | 8.58925 | 369 ft | 8 kts | 341° |
| 2026-05-07 14:47 | 50.04846 | 8.58904 | 367 ft | 2 kts | 340° |
| 2026-05-07 14:47 | 50.04851 | 8.58901 | 366 ft | 0 kts | 340° |